CheckWX is a tool to help pilots better visualize weather data.  It is not intended as a substitute for an official pre-flight weather briefing.

16:58:22 UTC

VTUV METAR
Roi Et Airport
Thailand
Current

3 hours ago

VTUV 161400Z 19002KT 9999 FEW030 27/26 Q1007 NOSIG
Observed
Sep-16 @ 14:00 UTC
Wind
  • 190° at 2 KTS
Visibility
10,000+ meters
Flight Rules
VFR
Cloud Levels
  • Few at 3,000' AGL
Temperature
27°C / 81°F
Dewpoint
26°C / 79°F
Heat Index
32°C / 89°F
Humidity
94%
Altimeter
29.73" Hg
Pressure
1006.92 hPa
Previous

4 hours ago

VTUV 161300Z 15002KT 9999 FEW030 28/26 Q1006 NOSIG
Observed
Sep-16 @ 13:00 UTC
Wind
  • 150° at 2 KTS
Visibility
10,000+ meters
Flight Rules
VFR
Cloud Levels
  • Few at 3,000' AGL
Temperature
28°C / 82°F
Dewpoint
26°C / 79°F
Heat Index
33°C / 91°F
Humidity
89%
Altimeter
29.7" Hg
Pressure
1005.92 hPa
Previous

5 hours ago

VTUV 161200Z 08003KT 9999 FEW030 29/25 Q1005 NOSIG
Observed
Sep-16 @ 12:00 UTC
Wind
  • 080° at 3 KTS
Visibility
10,000+ meters
Flight Rules
VFR
Cloud Levels
  • Few at 3,000' AGL
Temperature
29°C / 84°F
Dewpoint
25°C / 77°F
Heat Index
34°C / 94°F
Humidity
79%
Altimeter
29.68" Hg
Pressure
1004.92 hPa